Time;durP1;ratioP1;P1;durP2;ratioP2;P2;SDS_P1;SDS_P2;PMS_P1;PMS_P2;Temp;Humidity;BMP_temperature;BMP_pressure;BME280_temperature;BME280_humidity;BME280_pressure;Samples;Min_cycle;Max_cycle;Signal;HPM_P1;HPM_P2
2023/07/20 00:00:29;;;;;;;6.03;3.30;;;14.70;99.90;;;;;;5076803;28;20051;-60
2023/07/20 00:03:12;;;;;;;7.20;3.67;;;14.60;99.90;;;;;;5078867;28;20045;-59
2023/07/20 00:05:38;;;;;;;6.70;4.00;;;14.70;99.90;;;;;;5079162;28;20044;-59
2023/07/20 00:08:04;;;;;;;7.25;4.20;;;14.60;99.90;;;;;;5077619;28;20067;-60
2023/07/20 00:10:29;;;;;;;6.95;3.75;;;14.70;99.90;;;;;;5079213;28;20076;-59
2023/07/20 00:12:55;;;;;;;6.25;3.75;;;14.60;99.90;;;;;;5077908;28;20045;-60
2023/07/20 00:15:20;;;;;;;8.00;4.15;;;14.60;99.90;;;;;;5079122;28;20048;-60
2023/07/20 00:17:46;;;;;;;6.68;4.07;;;14.50;99.90;;;;;;5078129;28;20154;-59
2023/07/20 00:20:12;;;;;;;7.10;4.13;;;14.60;99.90;;;;;;5078840;28;20207;-59
2023/07/20 00:22:37;;;;;;;6.43;3.63;;;14.60;99.90;;;;;;5078686;28;20052;-59
2023/07/20 00:25:03;;;;;;;7.00;3.85;;;14.60;99.90;;;;;;5077883;28;20044;-59
2023/07/20 00:27:29;;;;;;;6.97;3.92;;;14.50;99.90;;;;;;5079008;28;20095;-59
2023/07/20 00:29:55;;;;;;;7.00;4.00;;;14.60;99.90;;;;;;5077174;28;20231;-59
2023/07/20 00:32:21;;;;;;;7.72;4.10;;;14.50;99.90;;;;;;5079128;28;20064;-60
2023/07/20 00:34:46;;;;;;;6.40;4.05;;;14.50;99.90;;;;;;5077732;28;20040;-59
2023/07/20 00:37:12;;;;;;;7.15;4.38;;;14.60;99.90;;;;;;5078370;28;20058;-57
2023/07/20 00:39:38;;;;;;;9.05;4.15;;;14.60;99.90;;;;;;5078378;28;20069;-59
2023/07/20 00:42:04;;;;;;;7.63;4.43;;;14.60;99.90;;;;;;5077142;28;20048;-59
2023/07/20 00:44:30;;;;;;;8.15;4.50;;;14.60;99.90;;;;;;5078681;28;20044;-59
2023/07/20 00:46:56;;;;;;;7.63;4.20;;;14.70;99.90;;;;;;5075612;28;20979;-59
2023/07/20 00:49:23;;;;;;;7.22;4.18;;;14.70;99.90;;;;;;5076605;28;20083;-59
2023/07/20 00:51:50;;;;;;;7.30;4.45;;;14.60;99.90;;;;;;5065793;28;20091;-59
2023/07/20 00:54:16;;;;;;;7.75;4.25;;;14.60;99.90;;;;;;5074518;28;20040;-60
2023/07/20 00:56:43;;;;;;;6.32;4.20;;;14.60;99.90;;;;;;5078039;28;20078;-60
2023/07/20 00:59:09;;;;;;;6.22;4.15;;;14.50;99.90;;;;;;5077501;28;20041;-61
2023/07/20 01:01:35;;;;;;;6.75;4.47;;;14.60;99.90;;;;;;5078517;28;20123;-60
2023/07/20 01:04:01;;;;;;;7.25;4.30;;;14.40;99.90;;;;;;5076052;28;20125;-60
2023/07/20 01:06:32;;;;;;;7.00;4.18;;;14.50;99.90;;;;;;5078327;28;20072;-59
2023/07/20 01:09:08;;;;;;;8.40;4.50;;;14.40;99.90;;;;;;5076808;28;20055;-59
2023/07/20 01:12:00;;;;;;;7.15;4.13;;;14.40;99.90;;;;;;5077867;28;20620;-60
2023/07/20 01:14:25;;;;;;;6.35;3.90;;;14.30;99.90;;;;;;5078221;28;20051;-59
2023/07/20 01:16:54;;;;;;;6.78;4.22;;;14.30;99.90;;;;;;5076769;28;20048;-60
2023/07/20 01:19:20;;;;;;;7.13;3.80;;;14.20;99.90;;;;;;5078601;28;20146;-61
2023/07/20 01:22:09;;;;;;;7.72;4.38;;;14.20;99.90;;;;;;5077078;28;20104;-60
2023/07/20 01:25:00;;;;;;;10.27;4.07;;;14.30;99.90;;;;;;5077858;28;20040;-59
2023/07/20 01:27:50;;;;;;;7.93;4.32;;;14.20;99.90;;;;;;5078033;28;20100;-60
2023/07/20 01:30:16;;;;;;;6.63;3.97;;;14.20;99.90;;;;;;5076471;28;20782;-60
2023/07/20 01:32:44;;;;;;;7.50;4.22;;;14.20;99.90;;;;;;5078172;28;20052;-60
2023/07/20 01:35:14;;;;;;;7.35;4.28;;;14.20;99.90;;;;;;5077738;28;20071;-59
2023/07/20 01:37:43;;;;;;;6.60;3.97;;;14.20;99.90;;;;;;5077195;28;20052;-60
2023/07/20 01:40:10;;;;;;;6.85;4.00;;;14.20;99.90;;;;;;5077890;28;20490;-59
2023/07/20 01:42:35;;;;;;;6.13;3.58;;;14.10;99.90;;;;;;5076693;28;20055;-60
2023/07/20 01:45:01;;;;;;;8.38;3.33;;;14.00;99.90;;;;;;5078224;28;20033;-60
2023/07/20 01:47:27;;;;;;;6.88;3.72;;;14.00;99.90;;;;;;5076476;28;20083;-60
2023/07/20 01:49:52;;;;;;;6.68;4.05;;;14.00;99.90;;;;;;5078041;28;20128;-60
2023/07/20 01:52:18;;;;;;;6.38;3.65;;;13.90;99.90;;;;;;5078330;28;20041;-59
2023/07/20 01:54:43;;;;;;;7.80;4.47;;;13.90;99.90;;;;;;5081510;28;20045;-59
2023/07/20 01:57:09;;;;;;;6.30;3.90;;;13.90;99.90;;;;;;5081742;28;20055;-59
2023/07/20 01:59:35;;;;;;;6.32;3.90;;;13.90;99.90;;;;;;5078561;28;20041;-59
2023/07/20 02:02:00;;;;;;;5.82;3.75;;;13.80;99.90;;;;;;5080958;28;20058;-59
2023/07/20 02:04:26;;;;;;;6.25;3.80;;;13.90;99.90;;;;;;5079641;28;20039;-60
2023/07/20 02:06:52;;;;;;;6.70;3.80;;;13.80;99.90;;;;;;5079778;28;20048;-59
2023/07/20 02:09:17;;;;;;;6.45;3.70;;;13.80;99.90;;;;;;5080596;28;20040;-60
2023/07/20 02:11:43;;;;;;;6.95;3.92;;;13.70;99.90;;;;;;5080787;28;20041;-59
2023/07/20 02:14:08;;;;;;;6.60;3.63;;;13.70;99.90;;;;;;5081221;28;20423;-60
2023/07/20 02:16:34;;;;;;;6.85;3.95;;;13.50;99.90;;;;;;5080115;28;20032;-59
2023/07/20 02:19:00;;;;;;;6.25;3.60;;;13.50;99.90;;;;;;5081415;28;20092;-59
2023/07/20 02:21:25;;;;;;;6.00;3.55;;;13.50;99.90;;;;;;5078449;28;20045;-59
2023/07/20 02:23:51;;;;;;;6.53;3.67;;;13.40;99.90;;;;;;5080327;28;20109;-59
2023/07/20 02:26:17;;;;;;;5.85;3.60;;;13.30;99.90;;;;;;5080429;28;20040;-59
2023/07/20 02:28:42;;;;;;;6.90;3.30;;;13.40;99.90;;;;;;5080557;28;20049;-59
2023/07/20 02:31:08;;;;;;;6.47;3.70;;;13.40;99.90;;;;;;5080889;28;20049;-60
2023/07/20 02:33:34;;;;;;;10.10;3.90;;;13.40;99.90;;;;;;5080271;28;20041;-60
2023/07/20 02:35:59;;;;;;;6.40;3.70;;;13.30;99.90;;;;;;5079834;28;20476;-59
2023/07/20 02:38:25;;;;;;;5.90;3.50;;;13.10;99.90;;;;;;5079232;28;20496;-56
2023/07/20 02:40:51;;;;;;;8.90;3.75;;;13.10;99.90;;;;;;5081309;28;20488;-59
2023/07/20 02:43:17;;;;;;;6.35;3.70;;;13.20;99.90;;;;;;5079966;28;20421;-59
2023/07/20 02:45:43;;;;;;;6.90;3.83;;;13.20;99.90;;;;;;5080777;28;20052;-59
2023/07/20 02:48:09;;;;;;;6.22;3.33;;;13.20;99.90;;;;;;5080761;28;20044;-59
2023/07/20 02:50:35;;;;;;;5.65;3.60;;;13.20;99.90;;;;;;5080145;28;20055;-59
2023/07/20 02:53:01;;;;;;;5.93;3.53;;;13.20;99.90;;;;;;5080826;28;20052;-59
2023/07/20 02:55:27;;;;;;;6.53;3.83;;;13.20;99.90;;;;;;5079497;28;20494;-59
2023/07/20 02:57:52;;;;;;;5.85;3.58;;;13.30;99.90;;;;;;5080750;28;20036;-59
2023/07/20 03:00:19;;;;;;;5.75;3.38;;;13.30;99.90;;;;;;5079525;28;20045;-59
2023/07/20 03:02:47;;;;;;;6.25;3.38;;;13.20;99.90;;;;;;5080565;28;20062;-59
2023/07/20 03:05:14;;;;;;;6.68;3.63;;;13.30;99.90;;;;;;5079427;28;20044;-59
2023/07/20 03:07:39;;;;;;;6.10;3.33;;;13.20;99.90;;;;;;5079491;28;20053;-59
2023/07/20 03:10:09;;;;;;;6.05;3.20;;;13.20;99.90;;;;;;5080559;28;20047;-59
2023/07/20 03:12:35;;;;;;;8.10;3.50;;;13.20;99.90;;;;;;5079020;28;20506;-59
2023/07/20 03:15:02;;;;;;;6.32;3.13;;;13.20;99.90;;;;;;5080460;28;20051;-59
2023/07/20 03:17:27;;;;;;;6.20;3.10;;;13.10;99.90;;;;;;5079131;28;20044;-59
2023/07/20 03:19:53;;;;;;;9.63;3.30;;;13.00;99.90;;;;;;5080164;28;20043;-60
2023/07/20 03:22:19;;;;;;;5.97;3.28;;;13.00;99.90;;;;;;5079924;28;20421;-59
2023/07/20 03:24:44;;;;;;;6.15;3.50;;;12.90;99.90;;;;;;5079691;28;20473;-60
2023/07/20 03:27:10;;;;;;;7.25;3.08;;;13.00;99.90;;;;;;5079968;28;20128;-60
2023/07/20 03:29:36;;;;;;;5.43;3.28;;;12.90;99.90;;;;;;5078876;28;20060;-59
2023/07/20 03:32:01;;;;;;;6.40;3.72;;;13.00;99.90;;;;;;5080128;28;20041;-60
2023/07/20 03:34:27;;;;;;;6.07;3.40;;;13.00;99.90;;;;;;5078783;28;20440;-59
2023/07/20 03:36:53;;;;;;;5.97;3.20;;;13.00;99.90;;;;;;5078282;28;20076;-60
2023/07/20 03:39:19;;;;;;;8.05;3.20;;;12.90;99.90;;;;;;5077941;28;20036;-59
2023/07/20 03:41:44;;;;;;;5.70;3.05;;;12.90;99.90;;;;;;5079218;28;20075;-59
2023/07/20 03:44:10;;;;;;;6.20;3.05;;;12.90;99.90;;;;;;5079647;28;20496;-59
2023/07/20 03:46:36;;;;;;;8.07;3.00;;;13.00;99.90;;;;;;5060914;28;20575;-60
2023/07/20 03:49:01;;;;;;;7.60;2.60;;;12.90;99.90;;;;;;5079743;28;20048;-59
2023/07/20 03:51:27;;;;;;;6.05;2.72;;;12.70;99.90;;;;;;5077110;28;20044;-59
2023/07/20 03:53:53;;;;;;;5.85;2.60;;;12.80;99.90;;;;;;5079595;28;20048;-59
2023/07/20 03:56:19;;;;;;;5.95;2.70;;;12.60;99.90;;;;;;5077135;28;20076;-59
2023/07/20 03:58:44;;;;;;;5.28;2.65;;;12.60;99.90;;;;;;5078922;28;20047;-59
2023/07/20 04:01:10;;;;;;;5.55;3.13;;;12.50;99.90;;;;;;5077946;28;20067;-59
2023/07/20 04:03:36;;;;;;;5.70;2.47;;;12.60;99.90;;;;;;5078585;28;20070;-59
2023/07/20 04:06:02;;;;;;;4.60;2.42;;;12.70;99.90;;;;;;5079444;28;20054;-59
2023/07/20 04:08:27;;;;;;;6.45;2.75;;;12.70;99.90;;;;;;5077569;28;20116;-59
2023/07/20 04:10:53;;;;;;;6.25;2.95;;;12.80;99.90;;;;;;5079294;28;20041;-59
2023/07/20 04:13:19;;;;;;;4.80;2.58;;;12.80;99.90;;;;;;5078325;28;20088;-59
2023/07/20 04:15:44;;;;;;;4.70;2.35;;;12.90;99.90;;;;;;5078683;28;20068;-59
2023/07/20 04:18:10;;;;;;;5.57;2.75;;;12.90;99.90;;;;;;5078714;28;20404;-59
2023/07/20 04:20:36;;;;;;;4.93;2.47;;;13.00;99.90;;;;;;5078380;28;20047;-59
2023/07/20 04:23:01;;;;;;;4.80;2.60;;;13.10;99.90;;;;;;5079215;28;20062;-59
2023/07/20 04:25:27;;;;;;;4.85;2.45;;;13.00;99.90;;;;;;5077493;28;20041;-59
2023/07/20 04:27:53;;;;;;;6.05;2.70;;;13.10;99.90;;;;;;5079214;28;20040;-59
2023/07/20 04:30:20;;;;;;;5.43;2.63;;;13.10;99.90;;;;;;5077620;28;20060;-60
2023/07/20 04:32:46;;;;;;;5.18;2.60;;;13.20;99.90;;;;;;5078667;28;20052;-59
2023/07/20 04:35:37;;;;;;;5.40;2.38;;;13.30;99.90;;;;;;5077809;28;20044;-61
2023/07/20 04:38:02;;;;;;;5.35;2.38;;;13.40;99.90;;;;;;5060037;28;20049;-59
2023/07/20 04:40:28;;;;;;;6.25;2.60;;;13.50;99.90;;;;;;5067593;28;20099;-60
2023/07/20 04:42:54;;;;;;;6.82;2.90;;;13.50;99.90;;;;;;5057429;28;20053;-60
2023/07/20 04:45:19;;;;;;;7.03;2.70;;;13.30;99.90;;;;;;5058670;28;20087;-59
2023/07/20 04:47:45;;;;;;;5.15;2.50;;;13.50;99.90;;;;;;5058091;28;20037;-59
2023/07/20 04:50:10;;;;;;;5.35;2.35;;;13.40;99.90;;;;;;5058074;28;20074;-60
2023/07/20 04:52:36;;;;;;;5.82;2.40;;;13.40;99.90;;;;;;5060247;28;20074;-60
2023/07/20 04:55:04;;;;;;;6.03;2.42;;;13.50;99.90;;;;;;5077333;28;20072;-60
2023/07/20 04:57:30;;;;;;;5.93;2.40;;;13.70;99.90;;;;;;5078697;28;20053;-60
2023/07/20 04:59:55;;;;;;;6.75;2.47;;;13.80;99.90;;;;;;5077027;28;20085;-60
2023/07/20 05:02:21;;;;;;;5.93;2.45;;;13.80;99.90;;;;;;5078612;28;20100;-60
2023/07/20 05:04:47;;;;;;;5.40;2.28;;;13.80;99.90;;;;;;5077554;28;20049;-60
2023/07/20 05:07:12;;;;;;;6.18;2.97;;;13.80;99.90;;;;;;5077726;28;20040;-60
2023/07/20 05:09:38;;;;;;;5.25;2.40;;;13.80;99.90;;;;;;5078244;28;20116;-59
2023/07/20 05:12:04;;;;;;;4.82;2.47;;;13.80;99.90;;;;;;5077315;28;20078;-60
2023/07/20 05:14:30;;;;;;;5.28;2.08;;;13.90;99.90;;;;;;5078307;28;20103;-60
2023/07/20 05:16:55;;;;;;;5.28;2.25;;;14.00;99.90;;;;;;5076992;28;20537;-59
2023/07/20 05:19:21;;;;;;;7.65;2.40;;;14.00;99.90;;;;;;5077957;28;20040;-59
2023/07/20 05:21:46;;;;;;;11.15;3.13;;;14.00;99.90;;;;;;5077420;28;20048;-60
2023/07/20 05:24:12;;;;;;;5.93;2.00;;;14.00;99.90;;;;;;5078021;28;20045;-60
2023/07/20 05:26:38;;;;;;;7.60;2.50;;;14.20;99.90;;;;;;5078355;28;20061;-59
2023/07/20 05:29:03;;;;;;;5.35;2.40;;;14.30;99.90;;;;;;5083474;28;20077;-59
2023/07/20 05:31:30;;;;;;;6.25;2.42;;;14.40;99.90;;;;;;5084699;28;20079;-59
2023/07/20 05:33:56;;;;;;;5.43;2.00;;;14.50;99.90;;;;;;5083459;28;20044;-59
2023/07/20 05:36:21;;;;;;;4.28;2.10;;;14.60;99.90;;;;;;5084657;28;20037;-59
2023/07/20 05:38:49;;;;;;;4.90;2.03;;;14.70;99.90;;;;;;5083437;28;20070;-58
2023/07/20 05:41:14;;;;;;;5.95;2.20;;;14.80;99.90;;;;;;5084611;28;20056;-59
2023/07/20 05:43:42;;;;;;;4.72;2.13;;;14.90;99.90;;;;;;5084341;28;20045;-59
2023/07/20 05:46:07;;;;;;;9.57;2.10;;;15.00;99.90;;;;;;5083956;28;20048;-59
2023/07/20 05:48:33;;;;;;;6.63;2.10;;;14.90;99.90;;;;;;5083530;28;20573;-58
2023/07/20 05:50:59;;;;;;;7.38;1.70;;;14.90;99.90;;;;;;5078306;28;20044;-59
2023/07/20 05:53:24;;;;;;;5.72;2.25;;;15.10;99.90;;;;;;5080755;28;20048;-59
2023/07/20 05:55:54;;;;;;;5.60;2.10;;;15.00;99.90;;;;;;5079172;28;20068;-59
2023/07/20 05:58:20;;;;;;;7.10;2.60;;;15.00;99.90;;;;;;5080587;28;20135;-59
2023/07/20 06:00:49;;;;;;;5.63;1.90;;;15.00;99.90;;;;;;5080318;28;20153;-59
2023/07/20 06:03:18;;;;;;;4.93;1.92;;;15.00;99.90;;;;;;5079472;28;20051;-59
2023/07/20 06:05:45;;;;;;;6.28;1.90;;;15.10;99.90;;;;;;5080612;28;20182;-59
2023/07/20 06:08:10;;;;;;;4.38;1.63;;;15.20;99.90;;;;;;5079269;28;20044;-59
2023/07/20 06:10:36;;;;;;;6.38;1.63;;;15.30;99.90;;;;;;5079397;28;20076;-58
2023/07/20 06:13:02;;;;;;;4.82;1.60;;;15.30;99.90;;;;;;5078165;28;20041;-59
2023/07/20 06:15:38;;;;;;;6.32;1.40;;;15.50;99.90;;;;;;5079430;28;20076;-59
2023/07/20 06:18:04;;;;;;;4.60;1.65;;;15.50;99.90;;;;;;5079878;28;20052;-59
2023/07/20 06:20:30;;;;;;;5.18;1.58;;;15.60;99.90;;;;;;5079083;28;20055;-59
2023/07/20 06:22:55;;;;;;;5.45;1.77;;;15.60;99.90;;;;;;5079848;28;20503;-59
2023/07/20 06:25:21;;;;;;;4.88;1.67;;;15.80;99.90;;;;;;5078270;28;20025;-59
2023/07/20 06:27:50;;;;;;;4.88;1.58;;;15.80;99.90;;;;;;5080356;28;20581;-59
2023/07/20 06:30:15;;;;;;;5.40;1.40;;;16.00;99.90;;;;;;5078451;28;20090;-59
2023/07/20 06:32:41;;;;;;;5.80;1.83;;;16.00;99.90;;;;;;5074965;28;20112;-59
2023/07/20 06:35:08;;;;;;;4.20;1.48;;;16.10;99.90;;;;;;5068172;28;20336;-59
2023/07/20 06:37:34;;;;;;;9.45;1.75;;;15.90;99.90;;;;;;5063396;28;20045;-59
2023/07/20 06:40:00;;;;;;;8.00;2.03;;;15.80;99.90;;;;;;5069757;28;20087;-59
2023/07/20 06:42:26;;;;;;;4.35;1.42;;;15.80;99.90;;;;;;5071143;28;20056;-59
2023/07/20 06:44:51;;;;;;;4.63;1.40;;;16.00;99.90;;;;;;5061532;28;20059;-59
2023/07/20 06:47:17;;;;;;;8.80;1.88;;;16.10;99.90;;;;;;5060501;28;20045;-59
2023/07/20 06:49:42;;;;;;;6.93;2.00;;;16.20;99.90;;;;;;5059693;28;20037;-59
2023/07/20 06:52:08;;;;;;;6.72;2.08;;;16.20;99.90;;;;;;5060941;28;20056;-59
2023/07/20 06:54:34;;;;;;;5.63;1.60;;;16.30;99.90;;;;;;5061784;28;20051;-59
2023/07/20 06:57:00;;;;;;;6.57;1.98;;;16.20;99.90;;;;;;5070057;28;20052;-59
2023/07/20 06:59:25;;;;;;;6.30;2.28;;;16.40;99.90;;;;;;5055163;28;20093;-59
2023/07/20 07:01:51;;;;;;;5.28;1.95;;;16.50;99.90;;;;;;5056235;28;20041;-59
2023/07/20 07:04:17;;;;;;;6.45;2.00;;;16.80;99.90;;;;;;5058606;28;20605;-59
2023/07/20 07:06:43;;;;;;;5.88;2.10;;;16.90;99.90;;;;;;5068069;28;20049;-59
2023/07/20 07:09:08;;;;;;;7.35;2.50;;;16.80;99.90;;;;;;5055773;28;20136;-59
2023/07/20 07:11:34;;;;;;;7.15;1.90;;;16.90;99.90;;;;;;5057037;28;20126;-59
2023/07/20 07:14:00;;;;;;;6.55;2.20;;;16.80;99.90;;;;;;5075292;28;20036;-59
2023/07/20 07:16:25;;;;;;;6.93;1.77;;;16.90;99.90;;;;;;5074098;28;20078;-59
2023/07/20 07:18:51;;;;;;;8.50;2.17;;;17.10;99.90;;;;;;5076046;28;20032;-59
2023/07/20 07:21:17;;;;;;;6.13;1.95;;;17.00;99.90;;;;;;5074628;28;20141;-59
2023/07/20 07:23:43;;;;;;;6.32;2.20;;;17.00;99.90;;;;;;5076464;28;20100;-59
2023/07/20 07:26:09;;;;;;;8.45;1.83;;;17.10;99.90;;;;;;5074457;28;20041;-59
2023/07/20 07:28:36;;;;;;;7.30;1.80;;;17.20;99.90;;;;;;5075728;28;20047;-58
2023/07/20 07:31:04;;;;;;;13.27;2.08;;;17.00;99.90;;;;;;5071005;28;20488;-59
2023/07/20 07:33:30;;;;;;;6.50;1.85;;;17.30;99.90;;;;;;5067012;28;20139;-59
2023/07/20 07:35:56;;;;;;;7.70;2.00;;;17.20;99.90;;;;;;5068461;28;20083;-58
2023/07/20 07:38:21;;;;;;;6.65;1.60;;;17.10;99.90;;;;;;5064255;28;20533;-59
2023/07/20 07:40:47;;;;;;;5.75;1.50;;;17.40;99.90;;;;;;5068384;28;20172;-59
2023/07/20 07:43:15;;;;;;;8.60;1.70;;;17.70;99.90;;;;;;5057235;28;20037;-58
2023/07/20 07:45:41;;;;;;;4.97;1.60;;;17.60;99.90;;;;;;5059199;28;20139;-60
2023/07/20 07:48:07;;;;;;;4.10;1.33;;;17.40;99.90;;;;;;5062227;28;20501;-60
2023/07/20 07:50:34;;;;;;;6.90;1.63;;;17.50;99.90;;;;;;5062611;28;20052;-59
2023/07/20 07:53:00;;;;;;;5.03;1.25;;;17.60;99.90;;;;;;5065500;28;20053;-59
2023/07/20 07:55:28;;;;;;;4.60;1.27;;;17.60;99.90;;;;;;5063953;28;20057;-59
2023/07/20 07:57:54;;;;;;;3.75;1.05;;;17.50;99.90;;;;;;5066937;28;20051;-59
2023/07/20 08:00:20;;;;;;;6.85;1.17;;;17.80;99.90;;;;;;5067001;28;20104;-58
2023/07/20 08:02:47;;;;;;;3.95;1.13;;;18.00;99.90;;;;;;5066142;28;20056;-59
2023/07/20 08:05:14;;;;;;;8.07;1.30;;;18.20;99.90;;;;;;5068755;28;20544;-58
2023/07/20 08:07:39;;;;;;;3.88;1.17;;;18.30;99.90;;;;;;5073523;28;20357;-59
2023/07/20 08:10:06;;;;;;;4.47;1.00;;;18.10;99.90;;;;;;5073672;28;20036;-59
2023/07/20 08:12:31;;;;;;;5.13;1.27;;;18.00;99.90;;;;;;5065761;28;20045;-59
2023/07/20 08:14:57;;;;;;;5.05;1.10;;;18.30;99.90;;;;;;5074763;28;20076;-59
2023/07/20 08:17:23;;;;;;;4.90;1.15;;;18.40;99.90;;;;;;5071075;28;20079;-59
2023/07/20 08:19:49;;;;;;;4.13;1.30;;;18.50;99.90;;;;;;5058441;28;20055;-59
2023/07/20 08:22:15;;;;;;;4.43;1.15;;;18.00;99.90;;;;;;5058347;28;20056;-58
2023/07/20 08:24:42;;;;;;;3.97;0.90;;;17.90;99.90;;;;;;5058164;28;20051;-59
2023/07/20 08:27:08;;;;;;;4.55;1.05;;;17.60;99.00;;;;;;5058097;28;20128;-59
2023/07/20 08:29:34;;;;;;;5.47;1.25;;;17.70;99.90;;;;;;5057477;28;20041;-59
2023/07/20 08:32:00;;;;;;;4.32;1.25;;;17.80;99.90;;;;;;5058553;28;20055;-59
2023/07/20 08:34:26;;;;;;;2.70;0.98;;;17.90;99.90;;;;;;5066067;28;20076;-59
2023/07/20 08:36:52;;;;;;;3.35;0.80;;;17.70;99.90;;;;;;5064104;28;20118;-59
2023/07/20 08:39:17;;;;;;;2.40;0.80;;;18.10;99.90;;;;;;5077931;28;20068;-59
2023/07/20 08:41:43;;;;;;;2.95;0.70;;;18.30;99.90;;;;;;5077475;28;20040;-59
2023/07/20 08:44:10;;;;;;;4.35;1.00;;;18.50;99.90;;;;;;5078387;28;20044;-59
2023/07/20 08:46:38;;;;;;;4.35;0.93;;;18.60;99.20;;;;;;5076700;28;20040;-59
2023/07/20 08:49:05;;;;;;;4.28;0.90;;;18.40;96.60;;;;;;5059927;28;20041;-59
2023/07/20 08:51:31;;;;;;;3.45;0.90;;;18.30;97.60;;;;;;5061875;28;20147;-59
2023/07/20 08:53:58;;;;;;;21.40;3.05;;;18.40;96.70;;;;;;5065948;28;20044;-58
2023/07/20 08:56:26;;;;;;;4.97;0.85;;;18.70;97.60;;;;;;5064867;28;20060;-59
2023/07/20 08:58:56;;;;;;;2.35;0.65;;;18.70;99.90;;;;;;5062437;28;20127;-59
2023/07/20 09:01:22;;;;;;;3.78;1.00;;;18.50;93.30;;;;;;5066937;28;20041;-59
2023/07/20 09:03:48;;;;;;;3.13;0.90;;;18.20;95.90;;;;;;5071829;28;20439;-58
2023/07/20 09:06:14;;;;;;;3.95;0.70;;;18.20;97.60;;;;;;5062177;28;20033;-58
2023/07/20 09:08:41;;;;;;;3.63;0.80;;;18.20;94.50;;;;;;5060590;28;20056;-59
2023/07/20 09:11:07;;;;;;;3.35;0.98;;;18.40;97.60;;;;;;5065483;28;20068;-59
2023/07/20 09:13:34;;;;;;;2.00;0.68;;;18.20;97.60;;;;;;5056553;28;20045;-59
2023/07/20 09:16:00;;;;;;;5.72;1.13;;;18.70;98.90;;;;;;5056981;28;20064;-59
2023/07/20 09:18:30;;;;;;;3.13;0.93;;;18.90;98.90;;;;;;5056476;28;20473;-57
2023/07/20 09:21:02;;;;;;;3.20;0.90;;;18.70;96.30;;;;;;5056723;28;20096;-59
2023/07/20 09:23:39;;;;;;;3.17;0.80;;;19.10;96.00;;;;;;5058115;28;20052;-59
2023/07/20 09:26:15;;;;;;;5.20;1.10;;;18.70;98.80;;;;;;5056983;28;20041;-59
2023/07/20 09:28:52;;;;;;;3.60;1.00;;;18.40;99.90;;;;;;5057353;28;20049;-59
2023/07/20 09:31:20;;;;;;;4.95;1.15;;;18.60;99.90;;;;;;5057324;28;20136;-59
2023/07/20 09:33:46;;;;;;;3.88;1.00;;;18.90;99.90;;;;;;5066442;28;20516;-59
2023/07/20 09:36:12;;;;;;;3.00;1.10;;;18.50;95.90;;;;;;5060410;28;20060;-59
2023/07/20 09:38:45;;;;;;;6.97;1.58;;;18.40;96.00;;;;;;5065994;28;20391;-59
2023/07/20 09:41:15;;;;;;;4.78;1.05;;;18.90;98.00;;;;;;5069877;28;20033;-59
2023/07/20 09:43:41;;;;;;;2.85;0.90;;;18.40;92.00;;;;;;5067151;28;20056;-58
2023/07/20 09:46:07;;;;;;;1.88;0.60;;;18.90;94.40;;;;;;5066857;28;20060;-59
2023/07/20 09:48:32;;;;;;;5.07;1.00;;;19.00;96.30;;;;;;5064814;28;20044;-59
2023/07/20 09:50:58;;;;;;;3.65;0.80;;;19.10;95.80;;;;;;5061946;28;20045;-59
2023/07/20 09:53:25;;;;;;;2.88;0.80;;;18.40;94.80;;;;;;5066400;28;20029;-59
2023/07/20 09:55:52;;;;;;;2.50;0.98;;;18.40;97.30;;;;;;5066556;28;20052;-59
2023/07/20 09:58:19;;;;;;;3.60;1.02;;;18.60;98.70;;;;;;5064710;28;20587;-59
2023/07/20 10:00:50;;;;;;;4.25;1.00;;;18.40;94.90;;;;;;5059916;28;20057;-59
2023/07/20 10:03:20;;;;;;;2.83;1.02;;;18.60;97.10;;;;;;5071399;28;20049;-59
2023/07/20 10:06:19;;;;;;;5.00;1.00;;;18.80;95.00;;;;;;5057544;28;20401;-59
2023/07/20 10:08:47;;;;;;;4.10;0.90;;;19.00;95.10;;;;;;5054429;28;20049;-58
2023/07/20 10:11:15;;;;;;;3.95;1.10;;;19.10;94.70;;;;;;5056972;28;20121;-59
2023/07/20 10:13:44;;;;;;;4.30;0.90;;;19.00;88.90;;;;;;5061195;28;20041;-59
2023/07/20 10:16:10;;;;;;;3.85;0.90;;;19.10;91.00;;;;;;5067548;28;20545;-59
2023/07/20 10:18:49;;;;;;;4.93;1.08;;;19.00;92.70;;;;;;5061141;28;20116;-59
2023/07/20 10:21:19;;;;;;;3.60;0.93;;;18.50;92.30;;;;;;5058579;28;20115;-59
2023/07/20 10:23:46;;;;;;;2.30;0.80;;;18.30;95.20;;;;;;5065118;28;20040;-59
2023/07/20 10:26:12;;;;;;;3.03;0.90;;;18.60;96.20;;;;;;5074605;28;20074;-59
2023/07/20 10:28:39;;;;;;;2.90;0.93;;;18.70;96.00;;;;;;5060528;28;20049;-59
2023/07/20 10:31:08;;;;;;;2.80;0.82;;;19.30;95.20;;;;;;5059236;28;20061;-59
2023/07/20 10:33:34;;;;;;;3.33;0.90;;;19.60;93.50;;;;;;5060050;28;20055;-59
2023/07/20 10:36:07;;;;;;;5.68;1.05;;;19.70;92.60;;;;;;5061255;28;20064;-59
2023/07/20 10:38:39;;;;;;;3.60;0.90;;;19.90;90.40;;;;;;5072115;28;20088;-59
2023/07/20 10:41:15;;;;;;;;;;;19.30;88.80;;;;;;5068078;28;20044;-59
2023/07/20 10:43:45;;;;;;;3.53;0.90;;;19.10;91.30;;;;;;5070914;28;19927;-59
2023/07/20 10:46:12;;;;;;;3.88;1.02;;;18.80;93.80;;;;;;5067483;28;20036;-58
2023/07/20 10:49:02;;;;;;;4.80;1.00;;;18.90;94.40;;;;;;5069793;28;20068;-59
2023/07/20 10:51:28;;;;;;;3.65;0.85;;;19.30;94.80;;;;;;5059889;28;20586;-60
2023/07/20 10:53:58;;;;;;;3.17;0.80;;;19.80;93.60;;;;;;5076185;28;20066;-57
2023/07/20 10:56:29;;;;;;;6.15;1.30;;;20.10;91.40;;;;;;5064074;28;20092;-59
2023/07/20 10:59:16;;;;;;;5.22;1.05;;;19.00;88.60;;;;;;5063028;28;20093;-59
2023/07/20 11:01:44;;;;;;;3.22;0.90;;;19.30;93.50;;;;;;5067304;28;20127;-59
2023/07/20 11:04:09;;;;;;;3.13;0.82;;;19.00;92.40;;;;;;5069389;28;20045;-58
2023/07/20 11:06:38;;;;;;;2.72;0.90;;;19.30;93.70;;;;;;5071677;28;20040;-59
2023/07/20 11:09:15;;;;;;;3.80;0.82;;;19.70;94.50;;;;;;5076697;28;20445;-58
2023/07/20 11:11:48;;;;;;;4.00;1.10;;;19.40;91.00;;;;;;5064405;28;20045;-59
2023/07/20 11:14:22;;;;;;;4.07;1.05;;;19.00;91.30;;;;;;5072798;28;20040;-60
2023/07/20 11:16:50;;;;;;;3.65;1.10;;;19.10;93.00;;;;;;5076961;28;20041;-60
2023/07/20 11:19:25;;;;;;;3.42;1.00;;;19.80;92.10;;;;;;5079744;28;20105;-60
2023/07/20 11:21:56;;;;;;;4.38;1.10;;;19.80;90.10;;;;;;5078186;28;20486;-60
2023/07/20 11:24:23;;;;;;;5.57;1.50;;;19.20;91.10;;;;;;5078358;28;20064;-59
2023/07/20 11:26:50;;;;;;;6.05;1.17;;;19.70;91.60;;;;;;5079127;28;20298;-59
2023/07/20 11:29:18;;;;;;;2.97;1.23;;;19.40;92.10;;;;;;5070814;28;20495;-59
2023/07/20 11:31:45;;;;;;;3.25;1.00;;;19.30;89.20;;;;;;5060830;28;20063;-59
2023/07/20 11:34:16;;;;;;;5.10;1.17;;;19.60;90.70;;;;;;5063219;28;20040;-59
2023/07/20 11:36:44;;;;;;;3.47;0.75;;;19.50;91.50;;;;;;5079286;28;20396;-59
2023/07/20 11:39:10;;;;;;;2.67;0.85;;;19.80;87.60;;;;;;5079327;28;20117;-59
2023/07/20 11:41:37;;;;;;;3.97;0.98;;;19.40;88.20;;;;;;5063780;28;20062;-60
2023/07/20 11:44:04;;;;;;;4.00;1.08;;;19.50;89.80;;;;;;5074016;28;20511;-60
2023/07/20 11:46:29;;;;;;;2.90;1.10;;;19.80;86.30;;;;;;5062708;28;20059;-60
2023/07/20 11:48:58;;;;;;;2.83;0.90;;;19.70;85.90;;;;;;5060123;28;20036;-60
2023/07/20 11:51:24;;;;;;;3.17;0.90;;;19.60;85.70;;;;;;5058431;28;20060;-60
2023/07/20 11:53:50;;;;;;;1.90;0.70;;;19.10;88.50;;;;;;5071930;28;20510;-60
2023/07/20 11:56:16;;;;;;;3.38;0.82;;;19.00;90.90;;;;;;5079220;28;20408;-60
2023/07/20 11:58:44;;;;;;;6.55;1.15;;;18.90;91.60;;;;;;5079111;28;20047;-60
2023/07/20 12:01:11;;;;;;;4.78;1.20;;;19.10;93.30;;;;;;5078127;28;20094;-60
2023/07/20 12:03:36;;;;;;;3.30;1.00;;;19.90;92.80;;;;;;5078507;28;20368;-59
2023/07/20 12:06:09;;;;;;;3.05;0.77;;;20.00;90.90;;;;;;5061398;28;20492;-60
2023/07/20 12:08:37;;;;;;;3.97;0.90;;;19.90;87.70;;;;;;5057564;28;20033;-60
2023/07/20 12:11:03;;;;;;;4.00;0.73;;;19.40;90.10;;;;;;5057872;28;20615;-60
2023/07/20 12:13:45;;;;;;;4.28;1.33;;;19.60;91.10;;;;;;5058980;28;20080;-60
2023/07/20 12:16:15;;;;;;;4.10;0.90;;;19.10;90.50;;;;;;5056602;28;20052;-59
2023/07/20 12:18:44;;;;;;;4.40;1.23;;;18.80;91.00;;;;;;5059483;28;20121;-59
2023/07/20 12:21:10;;;;;;;5.07;1.23;;;18.80;89.30;;;;;;5056525;28;20061;-59
2023/07/20 12:23:41;;;;;;;4.43;1.00;;;18.70;92.00;;;;;;5059209;28;20041;-59
2023/07/20 12:26:10;;;;;;;2.80;0.77;;;18.60;94.50;;;;;;5058295;28;20063;-59
2023/07/20 12:28:42;;;;;;;2.17;0.90;;;18.60;92.10;;;;;;5058191;28;20049;-59
2023/07/20 12:31:09;;;;;;;;;;;18.70;92.10;;;;;;5059207;28;20114;-60
2023/07/20 12:33:36;;;;;;;2.97;0.88;;;18.60;91.70;;;;;;5057805;28;20015;-59
2023/07/20 12:36:01;;;;;;;2.42;0.80;;;18.70;92.60;;;;;;5058850;28;20444;-60
2023/07/20 12:38:28;;;;;;;4.07;1.00;;;18.50;91.60;;;;;;5057331;28;20052;-60
2023/07/20 12:40:57;;;;;;;4.22;1.00;;;18.60;91.50;;;;;;5058907;28;20067;-59
2023/07/20 12:43:22;;;;;;;3.95;1.00;;;18.70;94.40;;;;;;5057683;28;20100;-60
2023/07/20 12:45:48;;;;;;;3.35;1.20;;;18.90;94.30;;;;;;5057800;28;20044;-60
2023/07/20 12:48:14;;;;;;;4.05;1.00;;;18.70;91.50;;;;;;5057005;28;20131;-60